Kirkland, Illinois
Current Conditions -  °F | °C
As of 8:35 PM on Tuesday 21 Oct 2014 (Local Time) from KDKB Reporting Station
Clear Clear  
Wind Chill: 35°   Ceiling: Unl
Heat Index: 39°   Visibility: 10mi
Dew Point: 35°   Wind: 6mph
Humidity: 83%   Direction: 80°E
Pressure: 30.26"   Gusts: NA
Location:  42.09°N, 88.85°W
Report Text: KDKB 220135Z AUTO 08005KT 10SM CLR 04/02 A3026 RMK AO2 T00410015
Loading
Personal Weather Stations






























Interactive Weather Map
Tropical Storm Tracking
New forecast layout! Learn more

10-Day Weather Forecast

Advertisements
Track Severe Weather on mobile